McGehee, Arkansas
Current Conditions -  °F | °C
As of 8:53 AM on Saturday 22 Nov 2014 (Local Time) from KLLQ Reporting Station
Broken Clouds Broken Clouds  
Wind Chill: 14°   Ceiling: 11000
Heat Index: 14°   Visibility: 10mi
Dew Point:   Wind: 5mph
Humidity: 72%   Direction: 140°SE
Pressure: 30.21"   Gusts: NA
Location:  33.63°N, 91.39°W
Report Text: KLLQ 221453Z AUTO 14004KT 10SM FEW080 SCT095 BKN110 14/09 A3021 RMK AO2 SLP229 T01390089 56004
Loading
Personal Weather Stations






























Interactive Weather Map New forecast layout! Learn more

10-Day Weather Forecast

Advertisements
Track Severe Weather on mobile